createdAt,value
2022-08-16T00:00:20.220Z,11.18
2022-08-16T00:05:27.809Z,11.30
2022-08-16T00:10:38.433Z,10.55
2022-08-16T00:15:51.482Z,11.60
2022-08-16T00:20:56.490Z,11.73
2022-08-16T00:26:33.193Z,12.18
2022-08-16T00:31:23.959Z,12.88
2022-08-16T00:36:29.199Z,11.32
2022-08-16T00:41:38.165Z,12.43
2022-08-16T00:46:52.823Z,12.13
2022-08-16T00:52:29.873Z,11.02
2022-08-16T00:57:33.100Z,10.88
2022-08-16T01:02:53.653Z,11.48
2022-08-16T01:07:58.636Z,11.57
2022-08-16T01:13:08.005Z,12.43
2022-08-16T01:18:40.536Z,11.35
2022-08-16T01:23:58.615Z,11.35
2022-08-16T01:29:09.913Z,12.40
2022-08-16T01:34:23.309Z,14.48
2022-08-16T01:39:34.387Z,13.73
2022-08-16T01:44:39.580Z,13.07
2022-08-16T01:50:41.250Z,12.63
2022-08-16T01:55:10.131Z,12.80
2022-08-16T02:00:19.535Z,14.23
2022-08-16T02:05:23.431Z,14.65
2022-08-16T02:10:28.279Z,14.85
2022-08-16T02:15:42.304Z,14.40
2022-08-16T02:20:53.416Z,14.52
2022-08-16T02:25:59.499Z,15.23
2022-08-16T02:31:05.922Z,13.57
2022-08-16T02:36:14.196Z,13.55
2022-08-16T02:41:19.077Z,13.60
2022-08-16T02:46:33.312Z,12.40
2022-08-16T02:51:38.842Z,12.40
2022-08-16T02:56:47.860Z,12.15
2022-08-16T03:01:51.511Z,10.25
2022-08-16T03:07:00.229Z,10.50
2022-08-16T03:12:37.668Z,13.30
2022-08-16T03:17:53.381Z,12.45
2022-08-16T03:22:57.634Z,12.13
2022-08-16T03:28:02.319Z,12.88
2022-08-16T03:33:11.317Z,12.40
2022-08-16T03:38:33.146Z,12.30
2022-08-16T03:43:51.211Z,10.38
2022-08-16T03:48:57.501Z,9.73
2022-08-16T03:54:00.805Z,11.50
2022-08-16T03:59:06.793Z,12.52
2022-08-16T04:04:32.448Z,10.60
2022-08-16T04:09:38.268Z,11.55
2022-08-16T04:14:46.732Z,10.55
2022-08-16T04:19:54.746Z,10.35
2022-08-16T04:25:01.444Z,8.65
2022-08-16T04:30:32.360Z,10.93
2022-08-16T04:35:39.453Z,10.25
2022-08-16T04:40:44.550Z,10.00
2022-08-16T04:46:00.302Z,8.85
2022-08-16T04:51:12.153Z,9.55
2022-08-16T04:56:26.101Z,10.50
2022-08-16T05:01:59.034Z,10.48
2022-08-16T05:06:55.821Z,11.45
2022-08-16T05:12:22.190Z,10.73
2022-08-16T05:17:36.200Z,7.07
2022-08-16T05:22:44.474Z,8.77
2022-08-16T05:27:51.603Z,8.77
2022-08-16T05:32:58.772Z,8.45
2022-08-16T05:38:03.961Z,8.63
2022-08-16T05:43:27.208Z,8.10
2022-08-16T05:48:36.758Z,7.50
2022-08-16T05:53:44.318Z,6.60
2022-08-16T05:58:52.137Z,6.25
2022-08-16T06:04:01.194Z,6.65
2022-08-16T06:09:10.941Z,5.68
2022-08-16T06:14:18.960Z,6.22
2022-08-16T06:19:25.149Z,6.57
2022-08-16T06:24:53.815Z,6.38
2022-08-16T06:30:03.146Z,6.28
2022-08-16T06:35:10.245Z,5.60
2022-08-16T06:40:16.025Z,6.18
2022-08-16T06:45:29.255Z,5.63
2022-08-16T06:50:43.014Z,5.65
2022-08-16T06:55:46.201Z,5.93
2022-08-16T07:00:50.907Z,6.50
2022-08-16T07:05:59.015Z,6.32
2022-08-16T07:11:08.996Z,6.28
2022-08-16T07:16:16.562Z,6.20
2022-08-16T07:21:25.287Z,5.70
2022-08-16T07:26:28.220Z,5.85
2022-08-16T07:31:37.607Z,6.40
2022-08-16T07:36:45.265Z,6.40
2022-08-16T07:42:01.599Z,7.00
2022-08-16T07:47:05.506Z,6.53
2022-08-16T07:52:20.110Z,6.35
2022-08-16T07:57:24.800Z,6.63
2022-08-16T08:02:31.260Z,6.35
2022-08-16T08:07:37.582Z,6.88
2022-08-16T08:12:49.821Z,6.90
2022-08-16T08:17:56.581Z,6.90
2022-08-16T08:23:13.441Z,6.78
2022-08-16T08:28:22.400Z,6.75
2022-08-16T08:33:34.977Z,7.95
2022-08-16T08:38:45.121Z,7.45
2022-08-16T08:43:52.130Z,7.47
2022-08-16T08:48:59.700Z,7.38
2022-08-16T08:54:10.031Z,8.20
2022-08-16T08:59:20.285Z,7.53
2022-08-16T09:04:25.970Z,7.78
2022-08-16T09:09:33.754Z,7.97
2022-08-16T09:14:39.533Z,7.50
2022-08-16T09:19:57.175Z,8.10
2022-08-16T09:25:11.116Z,8.73
2022-08-16T09:30:33.374Z,7.57
2022-08-16T09:35:42.520Z,8.90
2022-08-16T09:40:48.356Z,7.95
2022-08-16T09:45:51.240Z,8.75
2022-08-16T09:50:57.478Z,7.80
2022-08-16T09:56:02.170Z,8.07
2022-08-16T10:01:05.001Z,6.85
2022-08-16T10:06:11.211Z,7.90
2022-08-16T10:11:50.022Z,7.82
2022-08-16T10:16:59.654Z,7.38
2022-08-16T10:22:05.682Z,5.75
2022-08-16T10:27:26.080Z,6.60
2022-08-16T10:32:32.999Z,5.30
2022-08-16T10:37:36.831Z,5.00
2022-08-16T10:42:41.101Z,4.85
2022-08-16T10:47:44.766Z,5.40
2022-08-16T10:52:49.632Z,5.20
2022-08-16T10:57:57.470Z,4.88
2022-08-16T11:03:02.125Z,4.78
2022-08-16T11:08:06.936Z,4.40
2022-08-16T11:18:49.025Z,3.85
2022-08-16T11:24:00.036Z,3.63
2022-08-16T11:29:13.263Z,4.13
2022-08-16T11:34:19.799Z,3.60
2022-08-16T11:39:24.106Z,3.70
2022-08-16T11:44:52.346Z,3.65
2022-08-16T11:49:52.346Z,3.83
2022-08-16T11:55:00.011Z,4.07
2022-08-16T12:00:33.984Z,3.90
2022-08-16T12:05:35.522Z,4.05
2022-08-16T12:10:43.213Z,4.50
2022-08-16T12:15:47.773Z,4.00
2022-08-16T12:20:51.860Z,4.05
2022-08-16T12:25:59.053Z,3.92
2022-08-16T12:31:04.473Z,4.47
2022-08-16T12:36:17.096Z,3.78
2022-08-16T12:41:25.139Z,4.20
2022-08-16T12:46:31.147Z,3.90
2022-08-16T12:51:58.033Z,3.90
2022-08-16T12:57:02.303Z,4.35
2022-08-16T13:02:07.559Z,4.20
2022-08-16T13:07:15.654Z,4.15
2022-08-16T13:12:23.516Z,4.00
2022-08-16T13:17:29.633Z,4.00
2022-08-16T13:22:33.528Z,3.97
2022-08-16T13:28:01.399Z,3.75
2022-08-16T13:33:01.187Z,3.55
2022-08-16T13:38:05.433Z,3.50
2022-08-16T13:43:11.390Z,3.70
2022-08-16T13:48:24.385Z,3.58
2022-08-16T13:53:28.273Z,3.67
2022-08-16T13:58:36.917Z,4.05
2022-08-16T14:03:44.624Z,3.70
2022-08-16T14:08:59.373Z,3.63
2022-08-16T14:14:11.210Z,3.70
2022-08-16T14:19:19.016Z,3.85
2022-08-16T14:24:30.361Z,4.35
2022-08-16T14:29:38.349Z,4.18
2022-08-16T14:34:43.206Z,3.92
2022-08-16T14:39:46.314Z,4.18
2022-08-16T14:44:54.127Z,3.95
2022-08-16T14:49:59.671Z,3.55
2022-08-16T14:55:02.682Z,4.00
2022-08-16T15:00:09.387Z,3.90
2022-08-16T15:05:15.930Z,4.07
2022-08-16T15:10:19.350Z,3.60
2022-08-16T15:15:29.223Z,3.85
2022-08-16T15:20:35.747Z,3.30
2022-08-16T15:25:42.089Z,3.50
2022-08-16T15:30:59.707Z,3.47
2022-08-16T15:36:06.443Z,3.60
2022-08-16T15:41:10.962Z,3.53
2022-08-16T15:46:34.937Z,3.88
2022-08-16T15:51:49.769Z,3.63
2022-08-16T15:56:57.865Z,3.40
2022-08-16T16:02:03.456Z,3.47
2022-08-16T16:07:09.269Z,3.80
2022-08-16T16:12:43.738Z,3.80
2022-08-16T16:17:36.174Z,4.00
2022-08-16T16:22:41.714Z,4.38
2022-08-16T16:27:55.303Z,4.28
2022-08-16T16:32:59.473Z,5.22
2022-08-16T16:38:08.124Z,4.38
2022-08-16T16:43:13.827Z,4.57
2022-08-16T16:48:18.984Z,4.28
2022-08-16T16:53:23.266Z,4.03
2022-08-16T16:58:43.943Z,4.53
2022-08-16T17:03:56.770Z,4.55
2022-08-16T17:09:01.134Z,4.57
2022-08-16T17:14:05.468Z,4.03
2022-08-16T17:19:16.976Z,4.07
2022-08-16T17:24:31.957Z,4.90
2022-08-16T17:29:46.571Z,5.10
2022-08-16T17:34:50.911Z,4.65
2022-08-16T17:40:00.015Z,4.80
2022-08-16T17:45:10.144Z,4.43
2022-08-16T17:50:13.217Z,4.60
2022-08-16T17:55:24.636Z,5.13
2022-08-16T18:00:29.868Z,5.18
2022-08-16T18:05:33.334Z,5.25
2022-08-16T18:10:37.563Z,5.10
2022-08-16T18:15:41.081Z,5.13
2022-08-16T18:21:01.206Z,5.00
2022-08-16T18:26:07.372Z,5.20
2022-08-16T18:31:10.545Z,5.30
2022-08-16T18:36:20.592Z,5.18
2022-08-16T18:41:27.820Z,5.40
2022-08-16T18:46:30.650Z,5.47
2022-08-16T18:51:33.648Z,5.60
2022-08-16T18:56:55.849Z,5.40
2022-08-16T19:02:04.801Z,5.90
2022-08-16T19:07:08.217Z,5.47
2022-08-16T19:12:12.439Z,5.18
2022-08-16T19:17:18.993Z,5.40
2022-08-16T19:22:45.384Z,5.97
2022-08-16T19:27:51.649Z,5.80
2022-08-16T19:32:55.133Z,6.13
2022-08-16T19:37:58.021Z,5.72
2022-08-16T19:43:02.796Z,6.22
2022-08-16T19:48:09.540Z,6.28
2022-08-16T19:53:18.576Z,5.22
2022-08-16T19:58:23.265Z,6.10
2022-08-16T20:03:26.181Z,6.78
2022-08-16T20:08:29.072Z,6.65
2022-08-16T20:13:34.090Z,5.70
2022-08-16T20:18:36.965Z,5.25
2022-08-16T20:23:39.833Z,5.13
2022-08-16T20:28:54.284Z,4.88
2022-08-16T20:33:57.621Z,4.90
2022-08-16T20:39:03.185Z,5.68
2022-08-16T20:44:09.932Z,5.22
2022-08-16T20:49:12.892Z,5.82
2022-08-16T20:54:15.728Z,5.50
2022-08-16T20:59:21.028Z,6.40
2022-08-16T21:04:26.285Z,6.93
2022-08-16T21:09:33.578Z,6.85
2022-08-16T21:14:38.323Z,6.78
2022-08-16T21:19:41.468Z,6.93
2022-08-16T21:24:46.374Z,6.30
2022-08-16T21:29:51.765Z,6.03
2022-08-16T21:34:55.227Z,6.40
2022-08-16T21:39:58.061Z,6.70
2022-08-16T21:45:02.528Z,7.40
2022-08-16T21:50:06.015Z,7.05
2022-08-16T21:55:09.664Z,6.78
2022-08-16T22:00:15.347Z,6.80
2022-08-16T22:05:18.321Z,6.72
2022-08-16T22:11:06.603Z,6.50
2022-08-16T22:15:47.249Z,6.93
2022-08-16T22:20:50.716Z,7.13
2022-08-16T22:25:55.758Z,7.55
2022-08-16T22:31:01.044Z,7.75
2022-08-16T22:36:05.764Z,7.97
2022-08-16T22:41:08.483Z,7.57
2022-08-16T22:46:12.640Z,8.43
2022-08-16T22:51:15.439Z,7.85
2022-08-16T22:56:18.680Z,8.27
2022-08-16T23:01:25.168Z,8.27
2022-08-16T23:06:27.917Z,8.15
2022-08-16T23:11:30.695Z,7.70
2022-08-16T23:16:35.142Z,8.15
2022-08-16T23:21:40.729Z,7.65
2022-08-16T23:26:48.482Z,8.25
2022-08-16T23:31:54.376Z,7.95
2022-08-16T23:36:57.732Z,10.05
2022-08-16T23:42:00.743Z,11.05
2022-08-16T23:47:06.147Z,10.75
2022-08-16T23:52:09.857Z,10.15
2022-08-16T23:57:12.669Z,10.48
